createdAt,value
2023-03-22T00:01:25.546Z,20.78
2023-03-22T00:03:55.230Z,20.79
2023-03-22T00:06:25.128Z,20.79
2023-03-22T00:08:55.148Z,20.79
2023-03-22T00:11:27.131Z,20.79
2023-03-22T00:13:56.792Z,20.79
2023-03-22T00:16:26.772Z,20.78
2023-03-22T00:18:56.408Z,20.79
2023-03-22T00:21:26.008Z,20.80
2023-03-22T00:23:55.563Z,20.79
2023-03-22T00:26:25.218Z,20.81
2023-03-22T00:28:54.869Z,20.80
2023-03-22T00:31:24.437Z,20.82
2023-03-22T00:33:54.099Z,20.82
2023-03-22T00:36:23.784Z,20.82
2023-03-22T00:38:53.688Z,20.81
2023-03-22T00:41:24.471Z,20.83
2023-03-22T00:43:54.191Z,20.83
2023-03-22T00:46:23.906Z,20.83
2023-03-22T00:48:53.530Z,20.83
2023-03-22T00:51:23.200Z,20.86
2023-03-22T00:53:53.818Z,20.85
2023-03-22T00:56:24.537Z,20.86
2023-03-22T00:58:54.093Z,20.85
2023-03-22T01:01:23.704Z,20.85
2023-03-22T01:03:53.375Z,20.86
2023-03-22T01:06:23.019Z,20.86
2023-03-22T01:08:52.630Z,20.87
2023-03-22T01:11:22.272Z,20.88
2023-03-22T01:13:52.107Z,20.88
2023-03-22T01:16:21.895Z,20.89
2023-03-22T01:18:51.453Z,20.89
2023-03-22T01:21:21.088Z,20.90
2023-03-22T01:23:50.804Z,20.90
2023-03-22T01:26:20.396Z,20.91
2023-03-22T01:28:49.975Z,20.91
2023-03-22T01:31:19.580Z,20.93
2023-03-22T01:33:49.173Z,20.94
2023-03-22T01:36:18.769Z,20.97
2023-03-22T01:38:48.349Z,20.96
2023-03-22T01:41:18.933Z,20.97
2023-03-22T01:44:08.031Z,20.98
2023-03-22T01:46:38.229Z,20.99
2023-03-22T01:49:08.293Z,21.00
2023-03-22T01:51:37.943Z,21.03
2023-03-22T01:54:12.199Z,21.01
2023-03-22T01:56:41.976Z,21.02
2023-03-22T01:59:13.108Z,21.02
2023-03-22T02:01:42.761Z,21.06
2023-03-22T02:04:22.691Z,21.10
2023-03-22T02:06:55.837Z,21.11
2023-03-22T02:09:25.718Z,21.14
2023-03-22T02:12:21.279Z,21.14
2023-03-22T02:14:50.813Z,21.14
2023-03-22T02:17:32.538Z,21.15
2023-03-22T02:20:17.213Z,21.19
2023-03-22T02:22:51.557Z,21.20
2023-03-22T02:25:39.246Z,21.24
2023-03-22T02:28:24.021Z,21.27
2023-03-22T02:31:04.846Z,21.29
2023-03-22T02:33:41.662Z,21.29
2023-03-22T02:36:21.330Z,21.34
2023-03-22T02:39:14.841Z,21.35
2023-03-22T02:42:02.424Z,21.37
2023-03-22T02:44:49.148Z,21.37
2023-03-22T02:47:24.911Z,21.38
2023-03-22T02:50:12.232Z,21.38
2023-03-22T02:52:45.716Z,21.35
2023-03-22T02:55:22.916Z,21.35
2023-03-22T02:58:15.021Z,21.38
2023-03-22T03:00:45.197Z,21.39
2023-03-22T03:03:19.719Z,21.40
2023-03-22T03:05:57.397Z,21.42
2023-03-22T03:08:27.055Z,21.45
2023-03-22T03:10:57.062Z,21.43
2023-03-22T03:13:26.807Z,21.45
2023-03-22T03:16:00.419Z,21.46
2023-03-22T03:18:42.206Z,21.47
2023-03-22T03:21:36.414Z,21.45
2023-03-22T03:24:17.878Z,21.47
2023-03-22T03:26:59.486Z,21.50
2023-03-22T03:29:42.925Z,21.49
2023-03-22T03:32:27.179Z,21.49
2023-03-22T03:35:09.242Z,21.50
2023-03-22T03:37:43.866Z,21.52
2023-03-22T03:40:19.525Z,21.51
2023-03-22T03:42:53.595Z,21.49
2023-03-22T03:45:23.723Z,21.50
2023-03-22T03:47:58.552Z,21.50
2023-03-22T03:50:28.476Z,21.51
2023-03-22T03:52:58.382Z,21.51
2023-03-22T03:55:28.003Z,21.52
2023-03-22T03:57:57.658Z,21.55
2023-03-22T04:00:27.294Z,21.58
2023-03-22T04:02:57.232Z,21.57
2023-03-22T04:05:26.778Z,21.58
2023-03-22T04:07:56.365Z,21.56
2023-03-22T04:10:26.043Z,21.61
2023-03-22T04:12:55.661Z,21.57
2023-03-22T04:15:25.861Z,21.59
2023-03-22T04:17:58.574Z,21.59
2023-03-22T04:20:28.657Z,21.59
2023-03-22T04:22:59.597Z,21.57
2023-03-22T04:25:31.691Z,21.56
2023-03-22T04:28:02.081Z,21.61
2023-03-22T04:30:32.324Z,21.62
2023-03-22T04:33:02.854Z,21.63
2023-03-22T04:35:32.451Z,21.60
2023-03-22T04:38:02.800Z,21.61
2023-03-22T04:40:36.920Z,21.60
2023-03-22T04:43:06.409Z,21.61
2023-03-22T04:45:36.550Z,21.59
2023-03-22T04:48:06.252Z,21.59
2023-03-22T04:50:36.492Z,21.61
2023-03-22T04:53:06.100Z,21.64
2023-03-22T04:55:35.698Z,21.63
2023-03-22T04:58:05.334Z,21.62
2023-03-22T05:00:34.986Z,21.63
2023-03-22T05:03:05.629Z,21.64
2023-03-22T05:05:35.180Z,21.64
2023-03-22T05:08:04.702Z,21.67
2023-03-22T05:10:34.321Z,21.68
2023-03-22T05:13:03.918Z,21.69
2023-03-22T05:15:34.020Z,21.66
2023-03-22T05:18:03.736Z,21.65
2023-03-22T05:20:34.113Z,21.66
2023-03-22T05:23:04.181Z,21.64
2023-03-22T05:25:33.862Z,21.66
2023-03-22T05:28:03.607Z,21.65
2023-03-22T05:30:34.021Z,21.63
2023-03-22T05:33:05.576Z,21.63
2023-03-22T05:35:36.204Z,21.64
2023-03-22T05:38:06.364Z,21.61
2023-03-22T05:40:36.045Z,21.62
2023-03-22T05:43:05.612Z,21.67
2023-03-22T05:45:35.192Z,21.66
2023-03-22T05:48:05.315Z,21.67
2023-03-22T05:50:35.224Z,21.68
2023-03-22T05:53:05.595Z,21.67
2023-03-22T05:55:35.223Z,21.66
2023-03-22T05:58:06.610Z,21.64
2023-03-22T06:00:37.489Z,21.66
2023-03-22T06:03:07.345Z,21.67
2023-03-22T06:05:38.335Z,21.66
2023-03-22T06:08:07.943Z,21.68
2023-03-22T06:10:37.759Z,21.66
2023-03-22T06:13:07.577Z,21.64
2023-03-22T06:15:37.317Z,21.62
2023-03-22T06:18:06.878Z,21.63
2023-03-22T06:20:36.944Z,21.63
2023-03-22T06:23:06.824Z,21.64
2023-03-22T06:25:36.415Z,21.64
2023-03-22T06:28:08.496Z,21.65
2023-03-22T06:30:38.765Z,21.67
2023-03-22T06:33:08.654Z,21.68
2023-03-22T06:35:38.408Z,21.67
2023-03-22T06:38:08.060Z,21.67
2023-03-22T06:40:37.807Z,21.67
2023-03-22T06:43:07.626Z,21.66
2023-03-22T06:45:37.531Z,21.65
2023-03-22T06:48:07.574Z,21.64
2023-03-22T06:50:41.241Z,21.65
2023-03-22T06:53:12.145Z,21.66
2023-03-22T06:55:42.184Z,21.65
2023-03-22T06:58:11.938Z,21.66
2023-03-22T07:00:42.107Z,21.66
2023-03-22T07:03:12.011Z,21.66
2023-03-22T07:05:41.733Z,21.69
2023-03-22T07:08:11.417Z,21.68
2023-03-22T07:10:41.226Z,21.70
2023-03-22T07:13:11.127Z,21.69
2023-03-22T07:15:40.696Z,21.69
2023-03-22T07:18:10.347Z,21.71
2023-03-22T07:20:42.301Z,21.70
2023-03-22T07:23:14.720Z,21.68
2023-03-22T07:25:44.724Z,21.69
2023-03-22T07:28:14.392Z,21.68
2023-03-22T07:30:44.096Z,21.70
2023-03-22T07:33:13.713Z,21.70
2023-03-22T07:35:43.489Z,21.70
2023-03-22T07:38:13.279Z,21.85
2023-03-22T07:40:42.852Z,21.81
2023-03-22T07:43:14.665Z,21.79
2023-03-22T07:45:44.497Z,21.79
2023-03-22T07:48:14.240Z,21.78
2023-03-22T07:50:44.418Z,21.78
2023-03-22T07:53:14.153Z,21.78
2023-03-22T07:55:46.914Z,21.76
2023-03-22T07:58:16.597Z,21.76
2023-03-22T08:00:46.171Z,21.75
2023-03-22T08:03:15.863Z,21.76
2023-03-22T08:05:45.815Z,21.77
2023-03-22T08:08:15.426Z,21.76
2023-03-22T08:10:45.185Z,21.77
2023-03-22T08:13:14.745Z,21.77
2023-03-22T08:15:44.847Z,21.76
2023-03-22T08:18:14.641Z,21.77
2023-03-22T08:20:46.838Z,21.75
2023-03-22T08:23:17.779Z,21.74
2023-03-22T08:25:47.582Z,21.75
2023-03-22T08:28:17.721Z,21.74
2023-03-22T08:30:48.409Z,21.74
2023-03-22T08:33:18.147Z,21.74
2023-03-22T08:35:47.911Z,21.75
2023-03-22T08:38:18.388Z,21.74
2023-03-22T08:40:50.841Z,21.75
2023-03-22T08:43:20.451Z,21.76
2023-03-22T08:45:50.281Z,21.75
2023-03-22T08:48:20.498Z,21.74
2023-03-22T08:50:50.172Z,21.75
2023-03-22T08:53:19.743Z,21.77
2023-03-22T08:55:49.990Z,21.75
2023-03-22T08:58:21.533Z,21.74
2023-03-22T09:00:51.150Z,21.73
2023-03-22T09:03:20.794Z,21.71
2023-03-22T09:05:50.374Z,21.70
2023-03-22T09:08:20.187Z,21.70
2023-03-22T09:10:52.874Z,21.69
2023-03-22T09:13:22.632Z,21.69
2023-03-22T09:15:53.736Z,21.69
2023-03-22T09:18:24.015Z,21.67
2023-03-22T09:20:54.301Z,21.65
2023-03-22T09:23:23.987Z,21.64
2023-03-22T09:25:53.645Z,21.64
2023-03-22T09:28:23.388Z,21.62
2023-03-22T09:30:53.128Z,21.63
2023-03-22T09:33:22.783Z,21.61
2023-03-22T09:35:52.522Z,21.61
2023-03-22T09:38:23.142Z,21.61
2023-03-22T09:41:04.322Z,21.59
2023-03-22T09:43:58.615Z,21.59
2023-03-22T09:46:39.435Z,21.59
2023-03-22T09:49:14.937Z,21.56
2023-03-22T09:51:51.072Z,21.57
2023-03-22T09:54:26.503Z,21.55
2023-03-22T09:57:13.267Z,21.56
2023-03-22T09:59:55.910Z,21.56
2023-03-22T10:03:03.601Z,21.56
2023-03-22T10:05:39.310Z,21.55
2023-03-22T10:08:18.013Z,21.54
2023-03-22T10:10:47.602Z,21.54
2023-03-22T10:13:24.136Z,21.53
2023-03-22T10:15:57.896Z,21.54
2023-03-22T10:18:48.721Z,21.53
2023-03-22T10:21:18.934Z,21.53
2023-03-22T10:23:54.428Z,21.53
2023-03-22T10:26:43.812Z,21.54
2023-03-22T10:29:35.983Z,21.53
2023-03-22T10:33:09.870Z,21.52
2023-03-22T10:35:39.794Z,21.51
2023-03-22T10:38:11.218Z,21.51
2023-03-22T10:40:42.363Z,21.51
2023-03-22T10:43:25.730Z,21.51
2023-03-22T10:45:55.743Z,21.52
2023-03-22T10:48:25.413Z,21.51
2023-03-22T10:50:55.025Z,21.51
2023-03-22T10:53:40.073Z,21.51
2023-03-22T10:56:15.158Z,21.50
2023-03-22T10:58:44.925Z,21.50
2023-03-22T11:01:16.346Z,21.50
2023-03-22T11:03:53.223Z,21.50
2023-03-22T11:06:31.541Z,21.49
2023-03-22T11:09:02.909Z,21.49
2023-03-22T11:12:00.223Z,21.49
2023-03-22T11:14:39.336Z,21.50
2023-03-22T11:17:09.573Z,21.50
2023-03-22T11:19:43.554Z,21.48
2023-03-22T11:22:31.526Z,21.49
2023-03-22T11:25:01.338Z,21.49
2023-03-22T11:27:32.748Z,21.49
2023-03-22T11:30:31.830Z,21.51
2023-03-22T11:33:10.629Z,21.49
2023-03-22T11:35:41.233Z,21.49
2023-03-22T11:38:14.743Z,21.49
2023-03-22T11:40:44.647Z,21.49
2023-03-22T11:43:27.056Z,21.49
2023-03-22T11:45:58.819Z,21.49
2023-03-22T11:48:30.460Z,21.49
2023-03-22T11:51:14.768Z,21.48
2023-03-22T11:53:49.555Z,21.48
2023-03-22T11:56:20.782Z,21.49
2023-03-22T11:59:08.609Z,21.48
2023-03-22T12:02:09.362Z,21.47
2023-03-22T12:04:40.375Z,21.47
2023-03-22T12:07:18.397Z,21.47
2023-03-22T12:10:19.145Z,21.47
2023-03-22T12:13:00.646Z,21.46
2023-03-22T12:15:37.893Z,21.45
2023-03-22T12:18:21.582Z,21.45
2023-03-22T12:21:00.750Z,21.45
2023-03-22T12:23:36.479Z,21.45
2023-03-22T12:26:14.709Z,21.44
2023-03-22T12:28:52.961Z,21.45
2023-03-22T12:31:38.130Z,21.46
2023-03-22T12:34:10.255Z,21.45
2023-03-22T12:36:52.508Z,21.46
2023-03-22T12:39:33.159Z,21.46
2023-03-22T12:42:11.769Z,21.46
2023-03-22T12:44:55.554Z,21.47
2023-03-22T12:47:30.500Z,21.48
2023-03-22T12:50:10.416Z,21.47
2023-03-22T12:52:45.675Z,21.47
2023-03-22T12:55:41.876Z,21.47
2023-03-22T12:58:12.272Z,21.46
2023-03-22T13:00:47.731Z,21.46
2023-03-22T13:03:20.572Z,21.46
2023-03-22T13:05:51.835Z,21.46
2023-03-22T13:08:23.103Z,21.45
2023-03-22T13:11:05.956Z,21.47
2023-03-22T13:13:42.687Z,21.45
2023-03-22T13:16:15.087Z,21.47
2023-03-22T13:18:47.808Z,21.46
2023-03-22T13:21:22.791Z,21.45
2023-03-22T13:24:02.442Z,21.46
2023-03-22T13:26:49.734Z,21.45
2023-03-22T13:29:20.088Z,21.45
2023-03-22T13:32:00.237Z,21.45
2023-03-22T13:34:48.854Z,21.47
2023-03-22T13:37:36.608Z,21.46
2023-03-22T13:40:39.633Z,21.44
2023-03-22T13:43:14.404Z,21.45
2023-03-22T13:46:07.132Z,21.45
2023-03-22T13:48:54.987Z,21.44
2023-03-22T13:51:24.712Z,21.44
2023-03-22T13:54:09.384Z,21.44
2023-03-22T13:56:44.804Z,21.44
2023-03-22T13:59:21.186Z,21.43
2023-03-22T14:02:13.049Z,21.44
2023-03-22T14:04:49.314Z,21.43
2023-03-22T14:07:42.327Z,21.45
2023-03-22T14:10:16.303Z,21.44
2023-03-22T14:12:52.071Z,21.44
2023-03-22T14:15:30.534Z,21.44
2023-03-22T14:18:06.684Z,21.45
2023-03-22T14:20:40.119Z,21.45
